RRR4255 LBSF-LTFM
Flight info
| Callsign | RRR4255 |
|---|---|
| Flight time | 0h 50m |
| Altitude | 31000 |
| Route | RUMEN N739 PDV P127 AYTEK |
| Aircraft | A400/H-SDE2E3FGHIJ4J5M1RWXYZ/L4T |
Departure
| Time | 2026-05-07 15:58 |
|---|---|
| Airport | Sofia Airport (LBSF) |
Arrival
| Time | 2026-05-07 16:49 |
|---|---|
| Airport | İstanbul Airport (LTFM) |
| Time | Latitude | Longitude | Altitude | Speed | Heading |
|---|---|---|---|---|---|
| 2026-05-07 15:45 | 42.69055 | 23.40438 | 1762 ft | 0 kts | 195° |
| 2026-05-07 15:50 | 42.69054 | 23.40437 | 1762 ft | 1 kts | 195° |
| 2026-05-07 15:50 | 42.69030 | 23.40427 | 1762 ft | 6 kts | 201° |
| 2026-05-07 15:50 | 42.69019 | 23.40387 | 1763 ft | 4 kts | 284° |
| 2026-05-07 15:51 | 42.69029 | 23.40329 | 1764 ft | 8 kts | 284° |
| 2026-05-07 15:51 | 42.69050 | 23.40248 | 1766 ft | 7 kts | 304° |
| 2026-05-07 15:51 | 42.69064 | 23.40255 | 1766 ft | 1 kts | 60° |
| 2026-05-07 15:51 | 42.69053 | 23.40272 | 1768 ft | 6 kts | 134° |
| 2026-05-07 15:52 | 42.69069 | 23.40331 | 1765 ft | 11 kts | 13° |
| 2026-05-07 15:52 | 42.69143 | 23.40395 | 1766 ft | 16 kts | 88° |
| 2026-05-07 15:52 | 42.69105 | 23.40569 | 1764 ft | 23 kts | 107° |
| 2026-05-07 15:52 | 42.69053 | 23.40800 | 1765 ft | 28 kts | 106° |
| 2026-05-07 15:53 | 42.69101 | 23.41008 | 1765 ft | 24 kts | 61° |
| 2026-05-07 15:53 | 42.69174 | 23.41141 | 1763 ft | 10 kts | 2° |
| 2026-05-07 15:53 | 42.69245 | 23.41158 | 1766 ft | 10 kts | 12° |
| 2026-05-07 15:53 | 42.69324 | 23.41180 | 1765 ft | 12 kts | 12° |
| 2026-05-07 15:54 | 42.69413 | 23.41205 | 1767 ft | 14 kts | 11° |
| 2026-05-07 15:54 | 42.69486 | 23.41276 | 1763 ft | 14 kts | 79° |
| 2026-05-07 15:54 | 42.69478 | 23.41420 | 1764 ft | 17 kts | 95° |
| 2026-05-07 15:54 | 42.69468 | 23.41592 | 1762 ft | 19 kts | 94° |
| 2026-05-07 15:55 | 42.69456 | 23.41781 | 1762 ft | 21 kts | 95° |
| 2026-05-07 15:55 | 42.69443 | 23.41988 | 1764 ft | 23 kts | 95° |
| 2026-05-07 15:55 | 42.69431 | 23.42205 | 1762 ft | 24 kts | 95° |
| 2026-05-07 15:55 | 42.69418 | 23.42437 | 1766 ft | 25 kts | 95° |
| 2026-05-07 15:56 | 42.69404 | 23.42679 | 1766 ft | 26 kts | 96° |
| 2026-05-07 15:56 | 42.69388 | 23.42927 | 1763 ft | 27 kts | 94° |
| 2026-05-07 15:56 | 42.69372 | 23.43190 | 1763 ft | 29 kts | 94° |
| 2026-05-07 15:56 | 42.69356 | 23.43472 | 1762 ft | 31 kts | 94° |
| 2026-05-07 15:57 | 42.69338 | 23.43763 | 1787 ft | 31 kts | 99° |
| 2026-05-07 15:57 | 42.69412 | 23.43953 | 1810 ft | 24 kts | 2° |
| 2026-05-07 15:57 | 42.69528 | 23.43923 | 1810 ft | 7 kts | 270° |
| 2026-05-07 15:57 | 42.69524 | 23.43839 | 1810 ft | 10 kts | 275° |
| 2026-05-07 15:58 | 42.69531 | 23.43735 | 1778 ft | 20 kts | 275° |
| 2026-05-07 15:58 | 42.69574 | 23.43004 | 1763 ft | 134 kts | 274° |
| 2026-05-07 15:58 | 42.69672 | 23.41496 | 2291 ft | 163 kts | 274° |
| 2026-05-07 15:58 | 42.70012 | 23.40145 | 3480 ft | 155 kts | 314° |
| 2026-05-07 15:59 | 42.71009 | 23.39412 | 4369 ft | 179 kts | 342° |
| 2026-05-07 15:59 | 42.72342 | 23.39127 | 5131 ft | 209 kts | 349° |
| 2026-05-07 15:59 | 42.73877 | 23.38832 | 5903 ft | 234 kts | 350° |
| 2026-05-07 15:59 | 42.75547 | 23.38550 | 6840 ft | 250 kts | 350° |
| 2026-05-07 16:00 | 42.77316 | 23.38250 | 7799 ft | 262 kts | 350° |
| 2026-05-07 16:00 | 42.79170 | 23.37933 | 8761 ft | 275 kts | 351° |
| 2026-05-07 16:00 | 42.81116 | 23.37626 | 9703 ft | 286 kts | 351° |
| 2026-05-07 16:00 | 42.83135 | 23.37356 | 10524 ft | 301 kts | 355° |
| 2026-05-07 16:01 | 42.85238 | 23.37913 | 11158 ft | 318 kts | 28° |
| 2026-05-07 16:01 | 42.86329 | 23.39194 | 12030 ft | 309 kts | 53° |
| 2026-05-07 16:01 | 42.87091 | 23.41890 | 13070 ft | 313 kts | 87° |
| 2026-05-07 16:01 | 42.86678 | 23.44824 | 13563 ft | 326 kts | 120° |
| 2026-05-07 16:02 | 42.84862 | 23.48240 | 14063 ft | 343 kts | 129° |
| 2026-05-07 16:02 | 42.83416 | 23.50881 | 14473 ft | 353 kts | 128° |
| 2026-05-07 16:02 | 42.81977 | 23.53632 | 14930 ft | 360 kts | 127° |
| 2026-05-07 16:02 | 42.80528 | 23.56440 | 15393 ft | 364 kts | 127° |
| 2026-05-07 16:03 | 42.79063 | 23.59274 | 15852 ft | 368 kts | 127° |
| 2026-05-07 16:03 | 42.77551 | 23.62117 | 16337 ft | 372 kts | 129° |
| 2026-05-07 16:03 | 42.76004 | 23.64900 | 16771 ft | 376 kts | 129° |
| 2026-05-07 16:03 | 42.74404 | 23.67745 | 17245 ft | 381 kts | 129° |
| 2026-05-07 16:04 | 42.72784 | 23.70621 | 17764 ft | 385 kts | 129° |
| 2026-05-07 16:04 | 42.71146 | 23.73526 | 18294 ft | 389 kts | 129° |
| 2026-05-07 16:04 | 42.69490 | 23.76456 | 18801 ft | 393 kts | 130° |
| 2026-05-07 16:04 | 42.67655 | 23.79205 | 19295 ft | 392 kts | 140° |
| 2026-05-07 16:05 | 42.65438 | 23.81353 | 19799 ft | 390 kts | 154° |
| 2026-05-07 16:05 | 42.62927 | 23.82726 | 20236 ft | 391 kts | 166° |
| 2026-05-07 16:05 | 42.60288 | 23.83701 | 20665 ft | 395 kts | 168° |
| 2026-05-07 16:05 | 42.57613 | 23.84603 | 21214 ft | 397 kts | 169° |
| 2026-05-07 16:06 | 42.54945 | 23.85572 | 21795 ft | 398 kts | 165° |
| 2026-05-07 16:06 | 42.52377 | 23.87034 | 22325 ft | 403 kts | 154° |
| 2026-05-07 16:06 | 42.50050 | 23.89189 | 22802 ft | 409 kts | 141° |
| 2026-05-07 16:06 | 42.48703 | 23.90983 | 23132 ft | 413 kts | 133° |
| 2026-05-07 16:07 | 42.46487 | 23.95257 | 23712 ft | 417 kts | 123° |
| 2026-05-07 16:07 | 42.45497 | 23.97488 | 23939 ft | 419 kts | 122° |
| 2026-05-07 16:07 | 42.43506 | 24.02049 | 24334 ft | 422 kts | 122° |
| 2026-05-07 16:07 | 42.42001 | 24.05483 | 24613 ft | 425 kts | 122° |
| 2026-05-07 16:08 | 42.40500 | 24.08886 | 24889 ft | 427 kts | 122° |
| 2026-05-07 16:08 | 42.38970 | 24.12339 | 25170 ft | 428 kts | 123° |
| 2026-05-07 16:08 | 42.37440 | 24.15783 | 25418 ft | 430 kts | 123° |
| 2026-05-07 16:08 | 42.35885 | 24.19273 | 25666 ft | 433 kts | 123° |
| 2026-05-07 16:09 | 42.34323 | 24.22775 | 25930 ft | 435 kts | 123° |
| 2026-05-07 16:09 | 42.32756 | 24.26281 | 26196 ft | 436 kts | 123° |
| 2026-05-07 16:09 | 42.31181 | 24.29802 | 26479 ft | 438 kts | 123° |
| 2026-05-07 16:09 | 42.29607 | 24.33329 | 26759 ft | 440 kts | 123° |
| 2026-05-07 16:10 | 42.28560 | 24.35684 | 26950 ft | 441 kts | 123° |
| 2026-05-07 16:10 | 42.26452 | 24.40438 | 27391 ft | 442 kts | 123° |
| 2026-05-07 16:10 | 42.24872 | 24.44000 | 27755 ft | 442 kts | 123° |
| 2026-05-07 16:10 | 42.23291 | 24.47561 | 28142 ft | 441 kts | 123° |
| 2026-05-07 16:11 | 42.21715 | 24.51105 | 28534 ft | 440 kts | 123° |
| 2026-05-07 16:11 | 42.20160 | 24.54596 | 28914 ft | 440 kts | 123° |
| 2026-05-07 16:11 | 42.18566 | 24.58168 | 29310 ft | 439 kts | 123° |
| 2026-05-07 16:11 | 42.17523 | 24.60502 | 29578 ft | 438 kts | 123° |
| 2026-05-07 16:12 | 42.15441 | 24.65157 | 30116 ft | 437 kts | 124° |
| 2026-05-07 16:12 | 42.13871 | 24.68662 | 30493 ft | 436 kts | 124° |
| 2026-05-07 16:12 | 42.12812 | 24.71024 | 30762 ft | 435 kts | 124° |
| 2026-05-07 16:12 | 42.10748 | 24.75622 | 31115 ft | 433 kts | 124° |
| 2026-05-07 16:13 | 42.09184 | 24.79100 | 31073 ft | 434 kts | 124° |
| 2026-05-07 16:13 | 42.06264 | 24.86186 | 31047 ft | 435 kts | 115° |
| 2026-05-07 16:14 | 42.04695 | 24.94067 | 31049 ft | 438 kts | 102° |
| 2026-05-07 16:14 | 42.03932 | 25.00808 | 31049 ft | 439 kts | 99° |
| 2026-05-07 16:15 | 42.03147 | 25.08953 | 31045 ft | 438 kts | 98° |
| 2026-05-07 16:15 | 42.02360 | 25.17073 | 31042 ft | 438 kts | 98° |
| 2026-05-07 16:16 | 42.01542 | 25.25192 | 31037 ft | 438 kts | 99° |
| 2026-05-07 16:16 | 42.00703 | 25.33313 | 31032 ft | 438 kts | 98° |
| 2026-05-07 16:17 | 41.99855 | 25.41433 | 31033 ft | 439 kts | 99° |
| 2026-05-07 16:17 | 41.98488 | 25.49357 | 31033 ft | 438 kts | 105° |
| 2026-05-07 16:18 | 41.96927 | 25.57263 | 31029 ft | 438 kts | 106° |
| 2026-05-07 16:18 | 41.95343 | 25.65169 | 31024 ft | 438 kts | 106° |
| 2026-05-07 16:19 | 41.93750 | 25.73075 | 31030 ft | 438 kts | 106° |
| 2026-05-07 16:19 | 41.92415 | 25.79673 | 31036 ft | 438 kts | 106° |
| 2026-05-07 16:20 | 41.90552 | 25.88843 | 31033 ft | 438 kts | 106° |
| 2026-05-07 16:20 | 41.88943 | 25.96730 | 31038 ft | 438 kts | 105° |
| 2026-05-07 16:21 | 41.87331 | 26.04604 | 31038 ft | 438 kts | 105° |
| 2026-05-07 16:21 | 41.85711 | 26.12483 | 31039 ft | 438 kts | 106° |
| 2026-05-07 16:22 | 41.84083 | 26.20369 | 31039 ft | 438 kts | 106° |
| 2026-05-07 16:22 | 41.82464 | 26.28187 | 31045 ft | 438 kts | 105° |
| 2026-05-07 16:23 | 41.80800 | 26.36076 | 31043 ft | 440 kts | 108° |
| 2026-05-07 16:23 | 41.78743 | 26.43812 | 31043 ft | 440 kts | 110° |
| 2026-05-07 16:24 | 41.76619 | 26.51507 | 31047 ft | 440 kts | 110° |
| 2026-05-07 16:24 | 41.75547 | 26.55323 | 30914 ft | 432 kts | 112° |
| 2026-05-07 16:24 | 41.74193 | 26.58897 | 30164 ft | 430 kts | 122° |
| 2026-05-07 16:24 | 41.72580 | 26.62287 | 29164 ft | 432 kts | 124° |
| 2026-05-07 16:25 | 41.70911 | 26.65638 | 28263 ft | 433 kts | 124° |
| 2026-05-07 16:25 | 41.69223 | 26.69010 | 27342 ft | 440 kts | 124° |
| 2026-05-07 16:25 | 41.67512 | 26.72435 | 26439 ft | 443 kts | 124° |
| 2026-05-07 16:25 | 41.65806 | 26.75856 | 25613 ft | 439 kts | 124° |
| 2026-05-07 16:26 | 41.64122 | 26.79237 | 24982 ft | 435 kts | 124° |
| 2026-05-07 16:26 | 41.62460 | 26.82575 | 24651 ft | 430 kts | 124° |
| 2026-05-07 16:26 | 41.60825 | 26.85853 | 24361 ft | 429 kts | 124° |
| 2026-05-07 16:26 | 41.59257 | 26.89237 | 24065 ft | 428 kts | 121° |
| 2026-05-07 16:27 | 41.57670 | 26.92599 | 23776 ft | 427 kts | 123° |
| 2026-05-07 16:27 | 41.56062 | 26.95929 | 23449 ft | 425 kts | 123° |
| 2026-05-07 16:27 | 41.54459 | 26.99239 | 23101 ft | 423 kts | 123° |
| 2026-05-07 16:27 | 41.52861 | 27.02539 | 22751 ft | 421 kts | 123° |
| 2026-05-07 16:28 | 41.51274 | 27.05813 | 22417 ft | 419 kts | 123° |
| 2026-05-07 16:28 | 41.49696 | 27.09067 | 22078 ft | 416 kts | 123° |
| 2026-05-07 16:28 | 41.48131 | 27.12298 | 21745 ft | 414 kts | 123° |
| 2026-05-07 16:28 | 41.46567 | 27.15519 | 21428 ft | 412 kts | 123° |
| 2026-05-07 16:29 | 41.45016 | 27.18714 | 21090 ft | 410 kts | 123° |
| 2026-05-07 16:29 | 41.43462 | 27.21897 | 20767 ft | 408 kts | 123° |
| 2026-05-07 16:29 | 41.42061 | 27.25156 | 20447 ft | 405 kts | 117° |
| 2026-05-07 16:29 | 41.40746 | 27.28471 | 20153 ft | 403 kts | 117° |
| 2026-05-07 16:30 | 41.39472 | 27.31739 | 19873 ft | 402 kts | 117° |
| 2026-05-07 16:30 | 41.38200 | 27.35048 | 19584 ft | 400 kts | 117° |
| 2026-05-07 16:30 | 41.36944 | 27.38340 | 19306 ft | 398 kts | 116° |
| 2026-05-07 16:30 | 41.35695 | 27.41629 | 19024 ft | 396 kts | 116° |
| 2026-05-07 16:31 | 41.34456 | 27.44898 | 18751 ft | 394 kts | 116° |
| 2026-05-07 16:31 | 41.33225 | 27.48148 | 18510 ft | 393 kts | 116° |
| 2026-05-07 16:31 | 41.32003 | 27.51376 | 18256 ft | 390 kts | 116° |
| 2026-05-07 16:31 | 41.30783 | 27.54594 | 17991 ft | 388 kts | 116° |
| 2026-05-07 16:32 | 41.29568 | 27.57794 | 17727 ft | 386 kts | 116° |
| 2026-05-07 16:32 | 41.28359 | 27.60980 | 17465 ft | 385 kts | 116° |
| 2026-05-07 16:32 | 41.27153 | 27.64151 | 17211 ft | 383 kts | 116° |
| 2026-05-07 16:32 | 41.25955 | 27.67298 | 16953 ft | 381 kts | 117° |
| 2026-05-07 16:33 | 41.24758 | 27.70441 | 16697 ft | 379 kts | 117° |
| 2026-05-07 16:33 | 41.23568 | 27.73562 | 16448 ft | 378 kts | 117° |
| 2026-05-07 16:33 | 41.22383 | 27.76666 | 16196 ft | 376 kts | 117° |
| 2026-05-07 16:33 | 41.21217 | 27.79716 | 15950 ft | 374 kts | 117° |
| 2026-05-07 16:34 | 41.20025 | 27.82831 | 15693 ft | 373 kts | 117° |
| 2026-05-07 16:34 | 41.18852 | 27.85894 | 15443 ft | 371 kts | 117° |
| 2026-05-07 16:34 | 41.17683 | 27.88944 | 15218 ft | 370 kts | 117° |
| 2026-05-07 16:34 | 41.16520 | 27.91975 | 14978 ft | 368 kts | 117° |
| 2026-05-07 16:35 | 41.15376 | 27.94951 | 14735 ft | 366 kts | 117° |
| 2026-05-07 16:35 | 41.14217 | 27.97965 | 14498 ft | 365 kts | 117° |
| 2026-05-07 16:35 | 41.13063 | 28.00963 | 14261 ft | 364 kts | 117° |
| 2026-05-07 16:35 | 41.11914 | 28.03945 | 14026 ft | 362 kts | 117° |
| 2026-05-07 16:36 | 41.10769 | 28.06911 | 13775 ft | 361 kts | 117° |
| 2026-05-07 16:36 | 41.09629 | 28.09863 | 13473 ft | 358 kts | 117° |
| 2026-05-07 16:36 | 41.08500 | 28.12784 | 12690 ft | 355 kts | 117° |
| 2026-05-07 16:36 | 41.07379 | 28.15682 | 12005 ft | 350 kts | 117° |
| 2026-05-07 16:37 | 41.06271 | 28.18542 | 11471 ft | 348 kts | 117° |
| 2026-05-07 16:37 | 41.05170 | 28.21383 | 10934 ft | 345 kts | 117° |
| 2026-05-07 16:37 | 41.04077 | 28.24200 | 10392 ft | 343 kts | 117° |
| 2026-05-07 16:37 | 41.03006 | 28.26956 | 10159 ft | 326 kts | 117° |
| 2026-05-07 16:38 | 41.01998 | 28.29550 | 10073 ft | 307 kts | 117° |
| 2026-05-07 16:38 | 41.01041 | 28.32011 | 9935 ft | 300 kts | 117° |
| 2026-05-07 16:38 | 41.00084 | 28.34469 | 9493 ft | 299 kts | 117° |
| 2026-05-07 16:38 | 40.99135 | 28.36902 | 9086 ft | 297 kts | 117° |
| 2026-05-07 16:39 | 40.98188 | 28.39330 | 8713 ft | 297 kts | 117° |
| 2026-05-07 16:39 | 40.97243 | 28.41751 | 8333 ft | 296 kts | 117° |
| 2026-05-07 16:39 | 40.96300 | 28.44166 | 7947 ft | 294 kts | 117° |
| 2026-05-07 16:39 | 40.95318 | 28.46532 | 7504 ft | 292 kts | 121° |
| 2026-05-07 16:40 | 40.94277 | 28.48835 | 7072 ft | 291 kts | 122° |
| 2026-05-07 16:40 | 40.93229 | 28.51112 | 6647 ft | 289 kts | 122° |
| 2026-05-07 16:40 | 40.92198 | 28.53342 | 6201 ft | 287 kts | 122° |
| 2026-05-07 16:40 | 40.91161 | 28.55595 | 5743 ft | 286 kts | 121° |
| 2026-05-07 16:41 | 40.90206 | 28.57903 | 5303 ft | 286 kts | 118° |
| 2026-05-07 16:41 | 40.89353 | 28.60271 | 4856 ft | 284 kts | 110° |
| 2026-05-07 16:41 | 40.88982 | 28.62783 | 4644 ft | 274 kts | 90° |
| 2026-05-07 16:41 | 40.89313 | 28.65160 | 4697 ft | 257 kts | 65° |
| 2026-05-07 16:42 | 40.90328 | 28.67070 | 4823 ft | 254 kts | 37° |
| 2026-05-07 16:42 | 40.91837 | 28.68244 | 4869 ft | 252 kts | 21° |
| 2026-05-07 16:42 | 40.93456 | 28.69120 | 4901 ft | 252 kts | 18° |
| 2026-05-07 16:42 | 40.95092 | 28.69941 | 4922 ft | 251 kts | 18° |
| 2026-05-07 16:43 | 40.96713 | 28.70748 | 4893 ft | 252 kts | 18° |
| 2026-05-07 16:43 | 40.98366 | 28.71577 | 4825 ft | 249 kts | 18° |
| 2026-05-07 16:43 | 40.99940 | 28.72372 | 4766 ft | 243 kts | 18° |
| 2026-05-07 16:43 | 41.01514 | 28.73167 | 4640 ft | 241 kts | 18° |
| 2026-05-07 16:44 | 41.03079 | 28.73955 | 4464 ft | 240 kts | 17° |
| 2026-05-07 16:44 | 41.04661 | 28.74666 | 4237 ft | 239 kts | 13° |
| 2026-05-07 16:44 | 41.06253 | 28.75226 | 4034 ft | 234 kts | 9° |
| 2026-05-07 16:44 | 41.07819 | 28.75630 | 3781 ft | 224 kts | 7° |
| 2026-05-07 16:45 | 41.09309 | 28.75930 | 3522 ft | 209 kts | 359° |
| 2026-05-07 16:45 | 41.10727 | 28.75953 | 3303 ft | 201 kts | 355° |
| 2026-05-07 16:45 | 41.12103 | 28.75936 | 3079 ft | 195 kts | 354° |
| 2026-05-07 16:45 | 41.13451 | 28.75914 | 2802 ft | 191 kts | 354° |
| 2026-05-07 16:46 | 41.14774 | 28.75891 | 2545 ft | 189 kts | 354° |
| 2026-05-07 16:46 | 41.16051 | 28.75871 | 2309 ft | 179 kts | 355° |
| 2026-05-07 16:46 | 41.17276 | 28.75847 | 2073 ft | 174 kts | 355° |
| 2026-05-07 16:46 | 41.18466 | 28.75821 | 1854 ft | 169 kts | 356° |
| 2026-05-07 16:47 | 41.19615 | 28.75798 | 1622 ft | 163 kts | 356° |
| 2026-05-07 16:47 | 41.20714 | 28.75777 | 1405 ft | 152 kts | 356° |
| 2026-05-07 16:47 | 41.21745 | 28.75756 | 1222 ft | 145 kts | 357° |
| 2026-05-07 16:47 | 41.22733 | 28.75736 | 1031 ft | 138 kts | 358° |
| 2026-05-07 16:48 | 41.23660 | 28.75718 | 863 ft | 130 kts | 359° |
| 2026-05-07 16:48 | 41.24254 | 28.75706 | 763 ft | 128 kts | 359° |
| 2026-05-07 16:48 | 41.25123 | 28.75682 | 601 ft | 124 kts | 359° |
| 2026-05-07 16:48 | 41.26279 | 28.75663 | 384 ft | 123 kts | 359° |
| 2026-05-07 16:49 | 41.26834 | 28.75653 | 351 ft | 113 kts | 359° |
| 2026-05-07 16:49 | 41.27580 | 28.75642 | 348 ft | 47 kts | 359° |
| 2026-05-07 16:49 | 41.27826 | 28.75637 | 348 ft | 30 kts | 359° |
| 2026-05-07 16:49 | 41.28001 | 28.75597 | 339 ft | 22 kts | 336° |
| 2026-05-07 16:50 | 41.28105 | 28.75523 | 349 ft | 6 kts | 328° |
| 2026-05-07 16:50 | 41.28142 | 28.75492 | 351 ft | 7 kts | 328° |
| 2026-05-07 16:50 | 41.28169 | 28.75444 | 350 ft | 7 kts | 288° |
| 2026-05-07 16:50 | 41.28167 | 28.75408 | 351 ft | 6 kts | 255° |
| 2026-05-07 16:51 | 41.28117 | 28.75347 | 349 ft | 10 kts | 191° |
| 2026-05-07 16:51 | 41.28042 | 28.75350 | 352 ft | 12 kts | 181° |
| 2026-05-07 16:51 | 41.27949 | 28.75349 | 351 ft | 14 kts | 180° |
| 2026-05-07 16:51 | 41.27880 | 28.75348 | 345 ft | 15 kts | 180° |
| 2026-05-07 16:52 | 41.27731 | 28.75358 | 346 ft | 17 kts | 179° |
| 2026-05-07 16:52 | 41.27617 | 28.75360 | 353 ft | 16 kts | 179° |
| 2026-05-07 16:52 | 41.27504 | 28.75362 | 354 ft | 16 kts | 179° |
| 2026-05-07 16:52 | 41.27391 | 28.75364 | 344 ft | 16 kts | 179° |
| 2026-05-07 16:53 | 41.27332 | 28.75310 | 345 ft | 10 kts | 258° |
| 2026-05-07 16:53 | 41.27332 | 28.75227 | 343 ft | 10 kts | 269° |
| 2026-05-07 16:53 | 41.27331 | 28.75151 | 343 ft | 10 kts | 269° |
| 2026-05-07 16:53 | 41.27330 | 28.75056 | 343 ft | 10 kts | 269° |
| 2026-05-07 16:54 | 41.27329 | 28.74961 | 343 ft | 10 kts | 269° |
| 2026-05-07 16:54 | 41.27328 | 28.74865 | 343 ft | 10 kts | 269° |
| 2026-05-07 16:54 | 41.27327 | 28.74769 | 343 ft | 10 kts | 268° |
| 2026-05-07 16:54 | 41.27325 | 28.74674 | 343 ft | 10 kts | 268° |
| 2026-05-07 16:55 | 41.27295 | 28.74599 | 347 ft | 10 kts | 203° |
| 2026-05-07 16:55 | 41.27227 | 28.74601 | 349 ft | 10 kts | 176° |
| 2026-05-07 16:55 | 41.27160 | 28.74613 | 346 ft | 9 kts | 151° |
| 2026-05-07 16:55 | 41.27149 | 28.74664 | 349 ft | 4 kts | 84° |
| 2026-05-07 16:56 | 41.27150 | 28.74698 | 346 ft | 3 kts | 88° |
| 2026-05-07 16:56 | 41.27151 | 28.74728 | 343 ft | 4 kts | 89° |
| 2026-05-07 16:56 | 41.27152 | 28.74814 | 343 ft | 6 kts | 89° |
| 2026-05-07 16:57 | 41.27153 | 28.74868 | 346 ft | 6 kts | 89° |
| 2026-05-07 16:57 | 41.27153 | 28.74928 | 346 ft | 7 kts | 89° |
| 2026-05-07 16:57 | 41.27168 | 28.74979 | 351 ft | 6 kts | 37° |
| 2026-05-07 16:57 | 41.27200 | 28.74985 | 349 ft | 4 kts | 358° |
| 2026-05-07 16:58 | 41.27230 | 28.74984 | 351 ft | 4 kts | 359° |
| 2026-05-07 16:58 | 41.27258 | 28.74983 | 344 ft | 2 kts | 359° |
| 2026-05-07 16:58 | 41.27259 | 28.74983 | 352 ft | 0 kts | 359° |